sensor_id;sensor_type;location;lat;lon;timestamp;P1;durP1;ratioP1;P2;durP2;ratioP2
31994;SDS011;51311;50.870;7.048;2022-08-24T00:03:13;2.60;;;1.00;;
31994;SDS011;51311;50.870;7.048;2022-08-24T00:07:13;2.80;;;1.30;;
31994;SDS011;51311;50.870;7.048;2022-08-24T00:11:13;2.60;;;0.80;;
31994;SDS011;51311;50.870;7.048;2022-08-24T00:15:13;2.80;;;0.80;;
31994;SDS011;51311;50.870;7.048;2022-08-24T00:19:14;1.30;;;0.50;;
31994;SDS011;51311;50.870;7.048;2022-08-24T00:23:14;1.50;;;0.80;;
31994;SDS011;51311;50.870;7.048;2022-08-24T00:27:14;1.20;;;0.60;;
31994;SDS011;51311;50.870;7.048;2022-08-24T00:31:14;1.80;;;0.70;;
31994;SDS011;51311;50.870;7.048;2022-08-24T00:35:14;1.50;;;0.70;;
31994;SDS011;51311;50.870;7.048;2022-08-24T00:39:14;1.70;;;0.60;;
31994;SDS011;51311;50.870;7.048;2022-08-24T00:43:17;1.40;;;0.60;;
31994;SDS011;51311;50.870;7.048;2022-08-24T00:47:17;1.60;;;0.80;;
31994;SDS011;51311;50.870;7.048;2022-08-24T00:51:17;1.70;;;0.60;;
31994;SDS011;51311;50.870;7.048;2022-08-24T00:55:17;1.90;;;0.70;;
31994;SDS011;51311;50.870;7.048;2022-08-24T00:59:18;1.20;;;0.50;;
31994;SDS011;51311;50.870;7.048;2022-08-24T01:03:16;1.20;;;0.70;;
31994;SDS011;51311;50.870;7.048;2022-08-24T01:07:15;1.60;;;0.70;;
31994;SDS011;51311;50.870;7.048;2022-08-24T01:11:17;1.00;;;0.50;;
31994;SDS011;51311;50.870;7.048;2022-08-24T01:15:16;1.20;;;0.70;;
31994;SDS011;51311;50.870;7.048;2022-08-24T01:19:21;1.80;;;0.70;;
31994;SDS011;51311;50.870;7.048;2022-08-24T01:27:16;2.50;;;0.70;;
31994;SDS011;51311;50.870;7.048;2022-08-24T01:31:18;1.80;;;0.70;;
31994;SDS011;51311;50.870;7.048;2022-08-24T01:35:17;1.30;;;0.70;;
31994;SDS011;51311;50.870;7.048;2022-08-24T01:39:18;1.50;;;0.70;;
31994;SDS011;51311;50.870;7.048;2022-08-24T01:43:17;1.00;;;0.40;;
31994;SDS011;51311;50.870;7.048;2022-08-24T01:47:17;1.70;;;0.70;;
31994;SDS011;51311;50.870;7.048;2022-08-24T01:51:17;1.50;;;0.70;;
31994;SDS011;51311;50.870;7.048;2022-08-24T01:55:18;1.20;;;0.60;;
31994;SDS011;51311;50.870;7.048;2022-08-24T01:59:18;1.00;;;0.60;;
31994;SDS011;51311;50.870;7.048;2022-08-24T02:03:18;1.40;;;0.50;;
31994;SDS011;51311;50.870;7.048;2022-08-24T02:07:18;1.60;;;0.50;;
31994;SDS011;51311;50.870;7.048;2022-08-24T02:11:18;1.20;;;0.50;;
31994;SDS011;51311;50.870;7.048;2022-08-24T02:15:19;1.40;;;0.70;;
31994;SDS011;51311;50.870;7.048;2022-08-24T02:19:18;1.00;;;0.70;;
31994;SDS011;51311;50.870;7.048;2022-08-24T02:23:19;1.30;;;0.60;;
31994;SDS011;51311;50.870;7.048;2022-08-24T02:27:19;0.80;;;0.50;;
31994;SDS011;51311;50.870;7.048;2022-08-24T02:31:19;1.40;;;0.50;;
31994;SDS011;51311;50.870;7.048;2022-08-24T02:35:19;1.60;;;0.50;;
31994;SDS011;51311;50.870;7.048;2022-08-24T02:39:19;1.50;;;0.70;;
31994;SDS011;51311;50.870;7.048;2022-08-24T02:43:20;1.20;;;0.60;;
31994;SDS011;51311;50.870;7.048;2022-08-24T02:47:20;0.70;;;0.40;;
31994;SDS011;51311;50.870;7.048;2022-08-24T02:51:21;1.20;;;0.60;;
31994;SDS011;51311;50.870;7.048;2022-08-24T02:55:20;1.20;;;0.60;;
31994;SDS011;51311;50.870;7.048;2022-08-24T02:59:20;1.10;;;0.50;;
31994;SDS011;51311;50.870;7.048;2022-08-24T03:03:20;1.50;;;0.50;;
31994;SDS011;51311;50.870;7.048;2022-08-24T03:07:21;1.10;;;0.50;;
31994;SDS011;51311;50.870;7.048;2022-08-24T03:11:21;1.20;;;0.60;;
31994;SDS011;51311;50.870;7.048;2022-08-24T03:15:21;2.30;;;0.90;;
31994;SDS011;51311;50.870;7.048;2022-08-24T03:19:21;1.10;;;0.70;;
31994;SDS011;51311;50.870;7.048;2022-08-24T03:23:21;1.40;;;0.70;;
31994;SDS011;51311;50.870;7.048;2022-08-24T03:27:21;1.30;;;0.70;;
31994;SDS011;51311;50.870;7.048;2022-08-24T03:31:22;1.10;;;0.50;;
31994;SDS011;51311;50.870;7.048;2022-08-24T03:35:22;0.60;;;0.40;;
31994;SDS011;51311;50.870;7.048;2022-08-24T03:39:22;1.30;;;0.80;;
31994;SDS011;51311;50.870;7.048;2022-08-24T03:43:22;0.90;;;0.40;;
31994;SDS011;51311;50.870;7.048;2022-08-24T03:47:22;1.60;;;0.70;;
31994;SDS011;51311;50.870;7.048;2022-08-24T03:51:24;1.00;;;0.50;;
31994;SDS011;51311;50.870;7.048;2022-08-24T03:55:23;1.10;;;0.50;;
31994;SDS011;51311;50.870;7.048;2022-08-24T03:59:23;1.70;;;0.60;;
31994;SDS011;51311;50.870;7.048;2022-08-24T04:03:23;0.70;;;0.40;;
31994;SDS011;51311;50.870;7.048;2022-08-24T04:07:23;1.00;;;0.50;;
31994;SDS011;51311;50.870;7.048;2022-08-24T04:11:24;1.20;;;0.50;;
31994;SDS011;51311;50.870;7.048;2022-08-24T04:15:23;1.70;;;0.60;;
31994;SDS011;51311;50.870;7.048;2022-08-24T04:19:24;1.00;;;0.50;;
31994;SDS011;51311;50.870;7.048;2022-08-24T04:23:24;2.10;;;0.70;;
31994;SDS011;51311;50.870;7.048;2022-08-24T04:27:24;0.50;;;0.40;;
31994;SDS011;51311;50.870;7.048;2022-08-24T04:31:24;1.00;;;0.60;;
31994;SDS011;51311;50.870;7.048;2022-08-24T04:35:24;0.50;;;0.40;;
31994;SDS011;51311;50.870;7.048;2022-08-24T04:39:24;1.30;;;0.70;;
31994;SDS011;51311;50.870;7.048;2022-08-24T04:43:25;1.10;;;0.40;;
31994;SDS011;51311;50.870;7.048;2022-08-24T04:47:25;1.20;;;0.70;;
31994;SDS011;51311;50.870;7.048;2022-08-24T04:51:25;0.60;;;0.40;;
31994;SDS011;51311;50.870;7.048;2022-08-24T04:55:25;0.60;;;0.40;;
31994;SDS011;51311;50.870;7.048;2022-08-24T04:59:25;1.20;;;0.50;;
31994;SDS011;51311;50.870;7.048;2022-08-24T05:03:25;0.60;;;0.40;;
31994;SDS011;51311;50.870;7.048;2022-08-24T05:07:26;1.00;;;0.60;;
31994;SDS011;51311;50.870;7.048;2022-08-24T05:11:26;0.90;;;0.50;;
31994;SDS011;51311;50.870;7.048;2022-08-24T05:15:26;0.90;;;0.40;;
31994;SDS011;51311;50.870;7.048;2022-08-24T05:19:26;1.00;;;0.50;;
31994;SDS011;51311;50.870;7.048;2022-08-24T05:23:26;1.70;;;0.60;;
31994;SDS011;51311;50.870;7.048;2022-08-24T05:27:26;1.10;;;0.60;;
31994;SDS011;51311;50.870;7.048;2022-08-24T05:31:28;0.90;;;0.50;;
31994;SDS011;51311;50.870;7.048;2022-08-24T05:35:27;0.70;;;0.40;;
31994;SDS011;51311;50.870;7.048;2022-08-24T05:39:27;0.70;;;0.60;;
31994;SDS011;51311;50.870;7.048;2022-08-24T05:43:27;0.90;;;0.50;;
31994;SDS011;51311;50.870;7.048;2022-08-24T05:47:27;1.00;;;0.50;;
31994;SDS011;51311;50.870;7.048;2022-08-24T05:51:28;1.40;;;0.60;;
31994;SDS011;51311;50.870;7.048;2022-08-24T05:55:28;1.20;;;0.60;;
31994;SDS011;51311;50.870;7.048;2022-08-24T05:59:28;2.00;;;0.60;;
31994;SDS011;51311;50.870;7.048;2022-08-24T06:03:28;0.40;;;0.30;;
31994;SDS011;51311;50.870;7.048;2022-08-24T06:07:28;1.30;;;0.80;;
31994;SDS011;51311;50.870;7.048;2022-08-24T06:11:30;1.40;;;0.60;;
31994;SDS011;51311;50.870;7.048;2022-08-24T06:15:28;0.90;;;0.50;;
31994;SDS011;51311;50.870;7.048;2022-08-24T06:19:29;2.20;;;1.00;;
31994;SDS011;51311;50.870;7.048;2022-08-24T06:23:29;3.70;;;1.20;;
31994;SDS011;51311;50.870;7.048;2022-08-24T06:27:29;4.20;;;1.30;;
31994;SDS011;51311;50.870;7.048;2022-08-24T06:31:29;2.20;;;1.30;;
31994;SDS011;51311;50.870;7.048;2022-08-24T06:35:29;4.30;;;1.40;;
31994;SDS011;51311;50.870;7.048;2022-08-24T06:39:30;2.30;;;1.30;;
31994;SDS011;51311;50.870;7.048;2022-08-24T06:43:30;3.30;;;1.80;;
31994;SDS011;51311;50.870;7.048;2022-08-24T06:47:30;2.60;;;1.40;;
31994;SDS011;51311;50.870;7.048;2022-08-24T06:51:30;2.70;;;1.20;;
31994;SDS011;51311;50.870;7.048;2022-08-24T06:55:30;5.20;;;1.40;;
31994;SDS011;51311;50.870;7.048;2022-08-24T06:59:31;5.70;;;1.50;;
31994;SDS011;51311;50.870;7.048;2022-08-24T07:03:30;4.00;;;1.20;;
31994;SDS011;51311;50.870;7.048;2022-08-24T07:07:31;2.70;;;1.40;;
31994;SDS011;51311;50.870;7.048;2022-08-24T07:11:31;4.70;;;1.70;;
31994;SDS011;51311;50.870;7.048;2022-08-24T07:15:31;4.10;;;1.40;;
31994;SDS011;51311;50.870;7.048;2022-08-24T07:19:31;4.40;;;2.00;;
31994;SDS011;51311;50.870;7.048;2022-08-24T07:23:31;3.90;;;1.30;;
31994;SDS011;51311;50.870;7.048;2022-08-24T07:27:32;3.00;;;1.40;;
31994;SDS011;51311;50.870;7.048;2022-08-24T07:31:32;3.10;;;1.40;;
31994;SDS011;51311;50.870;7.048;2022-08-24T07:35:32;4.60;;;1.20;;
31994;SDS011;51311;50.870;7.048;2022-08-24T07:39:32;2.30;;;1.10;;
31994;SDS011;51311;50.870;7.048;2022-08-24T07:43:32;2.70;;;1.40;;
31994;SDS011;51311;50.870;7.048;2022-08-24T07:47:32;5.20;;;1.40;;
31994;SDS011;51311;50.870;7.048;2022-08-24T07:51:32;4.30;;;1.40;;
31994;SDS011;51311;50.870;7.048;2022-08-24T07:55:33;2.50;;;1.40;;
31994;SDS011;51311;50.870;7.048;2022-08-24T07:59:33;5.70;;;1.40;;
31994;SDS011;51311;50.870;7.048;2022-08-24T08:03:33;5.00;;;1.60;;
31994;SDS011;51311;50.870;7.048;2022-08-24T08:07:33;2.90;;;1.10;;
31994;SDS011;51311;50.870;7.048;2022-08-24T08:11:33;1.70;;;1.10;;
31994;SDS011;51311;50.870;7.048;2022-08-24T08:15:33;3.00;;;1.10;;
31994;SDS011;51311;50.870;7.048;2022-08-24T08:19:34;3.40;;;1.10;;
31994;SDS011;51311;50.870;7.048;2022-08-24T08:23:34;2.20;;;1.30;;
31994;SDS011;51311;50.870;7.048;2022-08-24T08:27:34;4.00;;;1.60;;
31994;SDS011;51311;50.870;7.048;2022-08-24T08:31:34;6.60;;;1.80;;
31994;SDS011;51311;50.870;7.048;2022-08-24T08:35:34;4.50;;;1.50;;
31994;SDS011;51311;50.870;7.048;2022-08-24T08:39:34;1.90;;;1.20;;
31994;SDS011;51311;50.870;7.048;2022-08-24T08:51:40;2.00;;;1.00;;
31994;SDS011;51311;50.870;7.048;2022-08-24T08:55:39;5.20;;;1.00;;
31994;SDS011;51311;50.870;7.048;2022-08-24T09:03:38;4.80;;;1.20;;
31994;SDS011;51311;50.870;7.048;2022-08-24T09:07:40;1.30;;;0.80;;
31994;SDS011;51311;50.870;7.048;2022-08-24T09:11:46;3.80;;;1.20;;
31994;SDS011;51311;50.870;7.048;2022-08-24T09:15:52;2.50;;;1.10;;
31994;SDS011;51311;50.870;7.048;2022-08-24T09:31:40;1.90;;;1.30;;
31994;SDS011;51311;50.870;7.048;2022-08-24T09:43:42;1.80;;;1.00;;
31994;SDS011;51311;50.870;7.048;2022-08-24T10:03:44;1.90;;;1.00;;
31994;SDS011;51311;50.870;7.048;2022-08-24T10:07:41;3.60;;;1.10;;
31994;SDS011;51311;50.870;7.048;2022-08-24T10:11:43;2.20;;;1.00;;
31994;SDS011;51311;50.870;7.048;2022-08-24T10:15:43;4.40;;;1.80;;
31994;SDS011;51311;50.870;7.048;2022-08-24T10:19:45;4.90;;;1.50;;
31994;SDS011;51311;50.870;7.048;2022-08-24T10:23:43;2.20;;;1.20;;
31994;SDS011;51311;50.870;7.048;2022-08-24T10:43:47;2.00;;;1.10;;
31994;SDS011;51311;50.870;7.048;2022-08-24T10:47:51;2.30;;;0.90;;
31994;SDS011;51311;50.870;7.048;2022-08-24T10:51:47;3.30;;;1.40;;
31994;SDS011;51311;50.870;7.048;2022-08-24T10:55:42;2.40;;;1.30;;
31994;SDS011;51311;50.870;7.048;2022-08-24T10:59:48;2.30;;;1.10;;
31994;SDS011;51311;50.870;7.048;2022-08-24T11:04:03;3.00;;;1.20;;
31994;SDS011;51311;50.870;7.048;2022-08-24T11:08:04;4.50;;;1.30;;
31994;SDS011;51311;50.870;7.048;2022-08-24T11:11:44;2.50;;;1.50;;
31994;SDS011;51311;50.870;7.048;2022-08-24T11:15:45;1.90;;;1.10;;
31994;SDS011;51311;50.870;7.048;2022-08-24T11:19:43;3.30;;;1.00;;
31994;SDS011;51311;50.870;7.048;2022-08-24T11:23:43;4.20;;;1.30;;
31994;SDS011;51311;50.870;7.048;2022-08-24T11:27:44;1.60;;;1.10;;
31994;SDS011;51311;50.870;7.048;2022-08-24T11:31:46;2.20;;;1.10;;
31994;SDS011;51311;50.870;7.048;2022-08-24T11:35:43;2.30;;;1.20;;
31994;SDS011;51311;50.870;7.048;2022-08-24T11:39:43;2.40;;;1.20;;
31994;SDS011;51311;50.870;7.048;2022-08-24T11:55:50;1.50;;;0.90;;
31994;SDS011;51311;50.870;7.048;2022-08-24T12:11:50;1.90;;;1.00;;
31994;SDS011;51311;50.870;7.048;2022-08-24T12:19:48;2.20;;;0.90;;
31994;SDS011;51311;50.870;7.048;2022-08-24T12:23:48;1.70;;;0.70;;
31994;SDS011;51311;50.870;7.048;2022-08-24T12:31:49;1.20;;;0.70;;
31994;SDS011;51311;50.870;7.048;2022-08-24T12:35:49;3.30;;;1.00;;
31994;SDS011;51311;50.870;7.048;2022-08-24T12:39:56;1.40;;;0.90;;
31994;SDS011;51311;50.870;7.048;2022-08-24T12:43:51;2.60;;;0.80;;
31994;SDS011;51311;50.870;7.048;2022-08-24T12:47:49;3.00;;;1.10;;
31994;SDS011;51311;50.870;7.048;2022-08-24T12:55:55;2.10;;;0.70;;
31994;SDS011;51311;50.870;7.048;2022-08-24T12:59:51;2.80;;;0.80;;
31994;SDS011;51311;50.870;7.048;2022-08-24T13:04:11;2.00;;;0.80;;
31994;SDS011;51311;50.870;7.048;2022-08-24T13:07:51;2.10;;;1.00;;
31994;SDS011;51311;50.870;7.048;2022-08-24T13:11:50;8.00;;;1.30;;
31994;SDS011;51311;50.870;7.048;2022-08-24T13:15:52;4.10;;;1.10;;
31994;SDS011;51311;50.870;7.048;2022-08-24T13:20:13;1.80;;;0.80;;
31994;SDS011;51311;50.870;7.048;2022-08-24T13:24:28;2.80;;;1.00;;
31994;SDS011;51311;50.870;7.048;2022-08-24T13:28:06;1.10;;;0.70;;
31994;SDS011;51311;50.870;7.048;2022-08-24T13:31:52;1.70;;;0.80;;
31994;SDS011;51311;50.870;7.048;2022-08-24T13:35:54;2.30;;;1.10;;
31994;SDS011;51311;50.870;7.048;2022-08-24T13:51:55;1.50;;;0.80;;
31994;SDS011;51311;50.870;7.048;2022-08-24T13:55:53;0.80;;;0.60;;
31994;SDS011;51311;50.870;7.048;2022-08-24T13:59:57;1.20;;;0.60;;
31994;SDS011;51311;50.870;7.048;2022-08-24T14:03:55;1.50;;;0.70;;
31994;SDS011;51311;50.870;7.048;2022-08-24T14:08:05;1.30;;;0.80;;
31994;SDS011;51311;50.870;7.048;2022-08-24T14:11:59;2.00;;;0.70;;
31994;SDS011;51311;50.870;7.048;2022-08-24T14:15:58;1.10;;;0.60;;
31994;SDS011;51311;50.870;7.048;2022-08-24T14:19:56;2.10;;;0.70;;
31994;SDS011;51311;50.870;7.048;2022-08-24T14:35:58;1.80;;;1.00;;
31994;SDS011;51311;50.870;7.048;2022-08-24T14:40:03;1.40;;;0.60;;
31994;SDS011;51311;50.870;7.048;2022-08-24T14:44:01;2.20;;;1.00;;
31994;SDS011;51311;50.870;7.048;2022-08-24T14:48:23;1.10;;;0.60;;
31994;SDS011;51311;50.870;7.048;2022-08-24T14:56:04;1.50;;;0.80;;
31994;SDS011;51311;50.870;7.048;2022-08-24T15:04:02;4.80;;;0.60;;
31994;SDS011;51311;50.870;7.048;2022-08-24T15:07:59;1.90;;;1.00;;
31994;SDS011;51311;50.870;7.048;2022-08-24T15:11:59;2.30;;;0.80;;
31994;SDS011;51311;50.870;7.048;2022-08-24T15:16:00;1.50;;;0.80;;
31994;SDS011;51311;50.870;7.048;2022-08-24T15:20:00;1.30;;;0.60;;
31994;SDS011;51311;50.870;7.048;2022-08-24T15:27:59;2.20;;;0.80;;
31994;SDS011;51311;50.870;7.048;2022-08-24T15:32:03;1.30;;;0.70;;
31994;SDS011;51311;50.870;7.048;2022-08-24T15:36:03;1.40;;;1.00;;
31994;SDS011;51311;50.870;7.048;2022-08-24T15:39:59;1.70;;;0.90;;
31994;SDS011;51311;50.870;7.048;2022-08-24T15:44:03;1.00;;;0.50;;
31994;SDS011;51311;50.870;7.048;2022-08-24T15:47:59;1.80;;;0.80;;
31994;SDS011;51311;50.870;7.048;2022-08-24T15:52:00;1.60;;;0.80;;
31994;SDS011;51311;50.870;7.048;2022-08-24T15:56:22;1.50;;;0.80;;
31994;SDS011;51311;50.870;7.048;2022-08-24T16:00:08;1.90;;;0.70;;
31994;SDS011;51311;50.870;7.048;2022-08-24T16:04:00;2.10;;;0.90;;
31994;SDS011;51311;50.870;7.048;2022-08-24T16:12:02;1.50;;;0.80;;
31994;SDS011;51311;50.870;7.048;2022-08-24T16:20:02;1.80;;;0.80;;
31994;SDS011;51311;50.870;7.048;2022-08-24T16:24:02;1.50;;;0.70;;
31994;SDS011;51311;50.870;7.048;2022-08-24T16:32:22;1.30;;;0.80;;
31994;SDS011;51311;50.870;7.048;2022-08-24T16:36:02;1.80;;;0.90;;
31994;SDS011;51311;50.870;7.048;2022-08-24T16:40:01;1.40;;;0.70;;
31994;SDS011;51311;50.870;7.048;2022-08-24T16:44:01;1.90;;;0.90;;
31994;SDS011;51311;50.870;7.048;2022-08-24T16:52:02;2.50;;;0.90;;
31994;SDS011;51311;50.870;7.048;2022-08-24T16:56:02;1.10;;;0.70;;
31994;SDS011;51311;50.870;7.048;2022-08-24T17:00:04;2.90;;;0.70;;
31994;SDS011;51311;50.870;7.048;2022-08-24T17:04:02;1.10;;;0.70;;
31994;SDS011;51311;50.870;7.048;2022-08-24T17:08:02;1.80;;;1.00;;
31994;SDS011;51311;50.870;7.048;2022-08-24T17:12:03;2.00;;;1.10;;
31994;SDS011;51311;50.870;7.048;2022-08-24T17:16:03;1.40;;;0.90;;
31994;SDS011;51311;50.870;7.048;2022-08-24T17:20:05;1.50;;;0.80;;
31994;SDS011;51311;50.870;7.048;2022-08-24T17:24:04;1.60;;;0.70;;
31994;SDS011;51311;50.870;7.048;2022-08-24T17:28:03;2.30;;;1.00;;
31994;SDS011;51311;50.870;7.048;2022-08-24T17:32:03;1.50;;;0.80;;
31994;SDS011;51311;50.870;7.048;2022-08-24T17:36:04;3.30;;;1.10;;
31994;SDS011;51311;50.870;7.048;2022-08-24T17:40:04;3.00;;;1.00;;
31994;SDS011;51311;50.870;7.048;2022-08-24T17:44:04;1.50;;;0.80;;
31994;SDS011;51311;50.870;7.048;2022-08-24T17:48:04;1.90;;;0.90;;
31994;SDS011;51311;50.870;7.048;2022-08-24T17:52:04;2.30;;;0.80;;
31994;SDS011;51311;50.870;7.048;2022-08-24T17:56:05;1.60;;;1.00;;
31994;SDS011;51311;50.870;7.048;2022-08-24T18:00:05;2.60;;;1.10;;
31994;SDS011;51311;50.870;7.048;2022-08-24T18:04:05;1.10;;;0.70;;
31994;SDS011;51311;50.870;7.048;2022-08-24T18:08:05;1.40;;;0.80;;
31994;SDS011;51311;50.870;7.048;2022-08-24T18:12:06;2.30;;;0.80;;
31994;SDS011;51311;50.870;7.048;2022-08-24T18:16:07;2.00;;;0.80;;
31994;SDS011;51311;50.870;7.048;2022-08-24T18:20:06;2.90;;;1.00;;
31994;SDS011;51311;50.870;7.048;2022-08-24T18:24:06;1.80;;;1.00;;
31994;SDS011;51311;50.870;7.048;2022-08-24T18:28:06;1.60;;;0.80;;
31994;SDS011;51311;50.870;7.048;2022-08-24T18:32:06;1.50;;;0.70;;
31994;SDS011;51311;50.870;7.048;2022-08-24T18:36:06;1.90;;;1.00;;
31994;SDS011;51311;50.870;7.048;2022-08-24T18:40:06;1.90;;;0.90;;
31994;SDS011;51311;50.870;7.048;2022-08-24T18:44:07;1.90;;;0.80;;
31994;SDS011;51311;50.870;7.048;2022-08-24T18:48:07;1.90;;;1.00;;
31994;SDS011;51311;50.870;7.048;2022-08-24T18:52:07;2.80;;;1.10;;
31994;SDS011;51311;50.870;7.048;2022-08-24T18:56:07;6.90;;;1.30;;
31994;SDS011;51311;50.870;7.048;2022-08-24T19:00:07;2.30;;;1.20;;
31994;SDS011;51311;50.870;7.048;2022-08-24T19:04:07;1.60;;;0.80;;
31994;SDS011;51311;50.870;7.048;2022-08-24T19:08:07;2.60;;;0.90;;
31994;SDS011;51311;50.870;7.048;2022-08-24T19:12:08;2.40;;;1.10;;
31994;SDS011;51311;50.870;7.048;2022-08-24T19:16:08;3.60;;;1.20;;
31994;SDS011;51311;50.870;7.048;2022-08-24T19:24:08;2.80;;;1.20;;
31994;SDS011;51311;50.870;7.048;2022-08-24T19:28:08;5.40;;;1.30;;
31994;SDS011;51311;50.870;7.048;2022-08-24T19:32:09;3.50;;;1.30;;
31994;SDS011;51311;50.870;7.048;2022-08-24T19:36:09;4.80;;;1.70;;
31994;SDS011;51311;50.870;7.048;2022-08-24T19:40:09;3.20;;;1.60;;
31994;SDS011;51311;50.870;7.048;2022-08-24T19:44:09;3.40;;;1.40;;
31994;SDS011;51311;50.870;7.048;2022-08-24T19:48:10;3.20;;;1.30;;
31994;SDS011;51311;50.870;7.048;2022-08-24T19:52:09;2.20;;;1.50;;
31994;SDS011;51311;50.870;7.048;2022-08-24T19:56:10;2.40;;;1.40;;
31994;SDS011;51311;50.870;7.048;2022-08-24T20:04:10;3.70;;;1.50;;
31994;SDS011;51311;50.870;7.048;2022-08-24T20:08:10;3.30;;;1.50;;
31994;SDS011;51311;50.870;7.048;2022-08-24T20:12:10;4.10;;;2.30;;
31994;SDS011;51311;50.870;7.048;2022-08-24T20:16:11;6.70;;;1.90;;
31994;SDS011;51311;50.870;7.048;2022-08-24T20:20:11;3.30;;;1.90;;
31994;SDS011;51311;50.870;7.048;2022-08-24T20:24:11;4.70;;;2.00;;
31994;SDS011;51311;50.870;7.048;2022-08-24T20:28:11;2.60;;;1.50;;
31994;SDS011;51311;50.870;7.048;2022-08-24T20:32:11;4.20;;;1.90;;
31994;SDS011;51311;50.870;7.048;2022-08-24T20:36:17;2.40;;;1.60;;
31994;SDS011;51311;50.870;7.048;2022-08-24T20:40:13;2.30;;;1.30;;
31994;SDS011;51311;50.870;7.048;2022-08-24T20:44:12;3.20;;;1.60;;
31994;SDS011;51311;50.870;7.048;2022-08-24T20:48:12;2.40;;;1.40;;
31994;SDS011;51311;50.870;7.048;2022-08-24T20:52:12;4.80;;;1.60;;
31994;SDS011;51311;50.870;7.048;2022-08-24T20:56:14;2.00;;;1.40;;
31994;SDS011;51311;50.870;7.048;2022-08-24T21:00:13;2.70;;;1.50;;
31994;SDS011;51311;50.870;7.048;2022-08-24T21:04:12;4.00;;;1.70;;
31994;SDS011;51311;50.870;7.048;2022-08-24T21:08:13;3.20;;;1.50;;
31994;SDS011;51311;50.870;7.048;2022-08-24T21:12:13;3.20;;;1.50;;
31994;SDS011;51311;50.870;7.048;2022-08-24T21:16:14;3.30;;;1.30;;
31994;SDS011;51311;50.870;7.048;2022-08-24T21:20:13;2.90;;;1.30;;
31994;SDS011;51311;50.870;7.048;2022-08-24T21:24:14;2.00;;;1.10;;
31994;SDS011;51311;50.870;7.048;2022-08-24T21:28:14;1.60;;;1.20;;
31994;SDS011;51311;50.870;7.048;2022-08-24T21:32:14;2.70;;;1.10;;
31994;SDS011;51311;50.870;7.048;2022-08-24T21:36:14;5.50;;;1.20;;
31994;SDS011;51311;50.870;7.048;2022-08-24T21:40:14;2.20;;;1.10;;
31994;SDS011;51311;50.870;7.048;2022-08-24T21:48:15;2.40;;;1.20;;
31994;SDS011;51311;50.870;7.048;2022-08-24T21:52:15;2.30;;;1.00;;
31994;SDS011;51311;50.870;7.048;2022-08-24T21:56:16;1.90;;;1.10;;
31994;SDS011;51311;50.870;7.048;2022-08-24T22:00:15;2.50;;;1.20;;
31994;SDS011;51311;50.870;7.048;2022-08-24T22:04:15;3.30;;;1.10;;
31994;SDS011;51311;50.870;7.048;2022-08-24T22:08:15;2.10;;;1.40;;
31994;SDS011;51311;50.870;7.048;2022-08-24T22:12:15;1.90;;;0.80;;
31994;SDS011;51311;50.870;7.048;2022-08-24T22:16:16;3.70;;;1.20;;
31994;SDS011;51311;50.870;7.048;2022-08-24T22:20:16;2.00;;;1.10;;
31994;SDS011;51311;50.870;7.048;2022-08-24T22:24:16;3.00;;;1.10;;
31994;SDS011;51311;50.870;7.048;2022-08-24T22:28:16;2.80;;;0.90;;
31994;SDS011;51311;50.870;7.048;2022-08-24T22:32:16;1.40;;;1.00;;
31994;SDS011;51311;50.870;7.048;2022-08-24T22:36:16;4.10;;;0.90;;
31994;SDS011;51311;50.870;7.048;2022-08-24T22:40:17;2.30;;;1.10;;
31994;SDS011;51311;50.870;7.048;2022-08-24T22:44:17;2.00;;;1.00;;
31994;SDS011;51311;50.870;7.048;2022-08-24T22:48:17;1.90;;;0.90;;
31994;SDS011;51311;50.870;7.048;2022-08-24T22:52:17;1.90;;;1.10;;
31994;SDS011;51311;50.870;7.048;2022-08-24T22:56:20;4.70;;;1.10;;
31994;SDS011;51311;50.870;7.048;2022-08-24T23:00:18;5.90;;;1.20;;
31994;SDS011;51311;50.870;7.048;2022-08-24T23:04:20;3.70;;;1.20;;
31994;SDS011;51311;50.870;7.048;2022-08-24T23:08:18;2.70;;;1.30;;
31994;SDS011;51311;50.870;7.048;2022-08-24T23:12:19;1.50;;;0.90;;
31994;SDS011;51311;50.870;7.048;2022-08-24T23:16:18;2.60;;;0.90;;
31994;SDS011;51311;50.870;7.048;2022-08-24T23:20:18;1.40;;;0.90;;
31994;SDS011;51311;50.870;7.048;2022-08-24T23:24:19;1.60;;;0.80;;
31994;SDS011;51311;50.870;7.048;2022-08-24T23:28:19;1.40;;;0.80;;
31994;SDS011;51311;50.870;7.048;2022-08-24T23:32:19;1.80;;;1.10;;
31994;SDS011;51311;50.870;7.048;2022-08-24T23:36:20;1.20;;;0.70;;
31994;SDS011;51311;50.870;7.048;2022-08-24T23:40:19;2.90;;;1.00;;
31994;SDS011;51311;50.870;7.048;2022-08-24T23:44:21;1.40;;;0.80;;
31994;SDS011;51311;50.870;7.048;2022-08-24T23:48:20;2.00;;;1.00;;
31994;SDS011;51311;50.870;7.048;2022-08-24T23:52:20;1.10;;;0.70;;
31994;SDS011;51311;50.870;7.048;2022-08-24T23:56:21;0.80;;;0.50;;
